Oakley, Idaho
Current Conditions -  °F | °C
As of 9:53 PM on Saturday 22 Nov 2014 (Local Time) from KBYI Reporting Station
Unknown Precip Unknown Precip  
Wind Chill: 25°   Ceiling: Unl
Heat Index: 35°   Visibility: 10mi
Dew Point: 29°   Wind: 16mph
Humidity: 78%   Direction: 260°W
Pressure: 29.9"   Gusts: 28mph
Location:  42.24°N, 113.88°W
Report Text: KBYI 230453Z AUTO 26014G24KT 10SM UP CLR 02/M02 A2990 RMK AO2 PK WND 25030/0354 UPB52SNB0357E06 SLP125 P0000 T00171017
Loading
Personal Weather Stations






























Interactive Weather Map New forecast layout! Learn more

10-Day Weather Forecast

Advertisements
Track Severe Weather on mobile